createdAt,value
2023-01-25T00:01:06.339Z,100.00
2023-01-25T00:04:07.880Z,100.00
2023-01-25T00:07:09.540Z,100.00
2023-01-25T00:10:11.238Z,100.00
2023-01-25T00:13:12.789Z,100.00
2023-01-25T00:16:14.553Z,100.00
2023-01-25T00:19:16.302Z,100.00
2023-01-25T00:22:17.836Z,100.00
2023-01-25T00:25:19.403Z,100.00
2023-01-25T00:28:20.913Z,100.00
2023-01-25T00:31:53.173Z,100.00
2023-01-25T00:34:58.437Z,100.00
2023-01-25T00:38:02.648Z,100.00
2023-01-25T00:41:04.368Z,100.00
2023-01-25T00:44:06.617Z,100.00
2023-01-25T00:47:10.644Z,100.00
2023-01-25T00:50:12.236Z,100.00
2023-01-25T00:53:14.630Z,100.00
2023-01-25T00:56:16.153Z,100.00
2023-01-25T00:59:18.143Z,100.00
2023-01-25T01:02:19.779Z,100.00
2023-01-25T01:05:21.489Z,100.00
2023-01-25T01:09:00.605Z,100.00
2023-01-25T01:12:58.398Z,100.00
2023-01-25T01:16:18.475Z,100.00
2023-01-25T01:19:20.117Z,100.00
2023-01-25T01:22:22.047Z,100.00
2023-01-25T01:25:23.859Z,100.00
2023-01-25T01:28:25.412Z,100.00
2023-01-25T01:31:27.915Z,100.00
2023-01-25T01:34:39.535Z,100.00
2023-01-25T01:37:42.744Z,100.00
2023-01-25T01:40:45.623Z,100.00
2023-01-25T01:43:47.746Z,100.00
2023-01-25T01:46:59.203Z,100.00
2023-01-25T01:50:16.948Z,100.00
2023-01-25T01:53:24.312Z,100.00
2023-01-25T01:56:36.028Z,100.00
2023-01-25T01:59:56.103Z,100.00
2023-01-25T02:02:58.826Z,100.00
2023-01-25T02:06:25.113Z,100.00
2023-01-25T02:09:29.767Z,100.00
2023-01-25T02:12:32.035Z,100.00
2023-01-25T02:15:46.204Z,100.00
2023-01-25T02:18:47.934Z,100.00
2023-01-25T02:21:51.805Z,100.00
2023-01-25T02:25:22.692Z,100.00
2023-01-25T02:28:32.694Z,100.00
2023-01-25T02:31:34.432Z,100.00
2023-01-25T02:34:36.353Z,100.00
2023-01-25T02:37:38.552Z,100.00
2023-01-25T02:40:51.078Z,100.00
2023-01-25T02:43:54.598Z,100.00
2023-01-25T02:46:56.486Z,100.00
2023-01-25T02:49:58.023Z,100.00
2023-01-25T02:52:59.559Z,100.00
2023-01-25T02:56:01.677Z,100.00
2023-01-25T02:59:05.731Z,100.00
2023-01-25T03:02:09.197Z,100.00
2023-01-25T03:05:10.920Z,100.00
2023-01-25T03:08:13.274Z,100.00
2023-01-25T03:11:15.515Z,100.00
2023-01-25T03:14:18.100Z,100.00
2023-01-25T03:17:19.651Z,100.00
2023-01-25T03:20:21.388Z,100.00
2023-01-25T03:23:23.066Z,100.00
2023-01-25T03:26:26.592Z,100.00
2023-01-25T03:29:43.400Z,100.00
2023-01-25T03:32:50.684Z,100.00
2023-01-25T03:35:55.544Z,100.00
2023-01-25T03:38:57.204Z,100.00
2023-01-25T03:41:58.917Z,100.00
2023-01-25T03:45:00.457Z,100.00
2023-01-25T03:48:02.754Z,100.00
2023-01-25T03:51:04.575Z,100.00
2023-01-25T03:54:08.338Z,100.00
2023-01-25T03:57:10.823Z,100.00
2023-01-25T04:00:24.545Z,100.00
2023-01-25T04:03:33.854Z,100.00
2023-01-25T04:06:35.786Z,100.00
2023-01-25T04:09:37.773Z,100.00
2023-01-25T04:12:41.007Z,100.00
2023-01-25T04:15:42.532Z,100.00
2023-01-25T04:18:53.075Z,100.00
2023-01-25T04:21:55.267Z,100.00
2023-01-25T04:24:58.487Z,100.00
2023-01-25T04:28:24.819Z,100.00
2023-01-25T04:31:26.925Z,100.00
2023-01-25T04:34:28.555Z,100.00
2023-01-25T04:37:30.364Z,100.00
2023-01-25T04:40:33.923Z,100.00
2023-01-25T04:43:35.590Z,100.00
2023-01-25T04:46:42.184Z,100.00
2023-01-25T04:49:43.759Z,100.00
2023-01-25T04:52:45.333Z,100.00
2023-01-25T04:55:47.911Z,100.00
2023-01-25T04:58:50.162Z,100.00
2023-01-25T05:01:51.713Z,100.00
2023-01-25T05:04:53.209Z,100.00
2023-01-25T05:07:55.757Z,100.00
2023-01-25T05:10:57.639Z,100.00
2023-01-25T05:14:13.312Z,100.00
2023-01-25T05:17:17.240Z,100.00
2023-01-25T05:20:18.949Z,100.00
2023-01-25T05:23:21.119Z,100.00
2023-01-25T05:26:41.258Z,100.00
2023-01-25T05:29:44.738Z,100.00
2023-01-25T05:32:48.465Z,100.00
2023-01-25T05:35:50.996Z,100.00
2023-01-25T05:38:53.283Z,100.00
2023-01-25T05:41:55.132Z,100.00
2023-01-25T05:44:57.787Z,100.00
2023-01-25T05:47:59.902Z,100.00
2023-01-25T05:51:01.698Z,100.00
2023-01-25T05:54:08.370Z,100.00
2023-01-25T05:57:10.997Z,100.00
2023-01-25T06:00:16.429Z,100.00
2023-01-25T06:03:18.115Z,100.00
2023-01-25T06:06:21.186Z,100.00
2023-01-25T06:09:23.745Z,100.00
2023-01-25T06:12:26.984Z,100.00
2023-01-25T06:15:30.762Z,100.00
2023-01-25T06:18:51.572Z,100.00
2023-01-25T06:22:09.222Z,100.00
2023-01-25T06:25:11.025Z,100.00
2023-01-25T06:28:12.705Z,100.00
2023-01-25T06:31:16.741Z,100.00
2023-01-25T06:34:18.358Z,100.00
2023-01-25T06:37:21.580Z,100.00
2023-01-25T06:40:23.365Z,100.00
2023-01-25T06:43:25.081Z,100.00
2023-01-25T06:46:27.417Z,100.00
2023-01-25T06:49:29.017Z,100.00
2023-01-25T06:52:31.789Z,100.00
2023-01-25T06:55:33.291Z,100.00
2023-01-25T06:58:37.101Z,100.00
2023-01-25T07:01:38.796Z,100.00
2023-01-25T07:04:40.313Z,100.00
2023-01-25T07:07:46.287Z,100.00
2023-01-25T07:10:54.365Z,100.00
2023-01-25T07:13:55.832Z,100.00
2023-01-25T07:16:57.733Z,100.00
2023-01-25T07:19:59.248Z,100.00
2023-01-25T07:23:02.271Z,100.00
2023-01-25T07:26:24.123Z,100.00
2023-01-25T07:29:36.506Z,100.00
2023-01-25T07:32:38.024Z,100.00
2023-01-25T07:35:39.688Z,100.00
2023-01-25T07:38:41.315Z,100.00
2023-01-25T07:41:42.807Z,100.00
2023-01-25T07:44:47.907Z,100.00
2023-01-25T07:47:49.425Z,100.00
2023-01-25T07:51:10.921Z,100.00
2023-01-25T07:54:12.543Z,100.00
2023-01-25T07:57:15.019Z,100.00
2023-01-25T08:00:17.003Z,100.00
2023-01-25T08:03:22.085Z,100.00
2023-01-25T08:06:40.994Z,100.00
2023-01-25T08:09:42.725Z,100.00
2023-01-25T08:12:46.314Z,100.00
2023-01-25T08:15:54.707Z,100.00
2023-01-25T08:18:58.907Z,100.00
2023-01-25T08:22:00.295Z,100.00
2023-01-25T08:25:02.871Z,100.00
2023-01-25T08:28:04.478Z,100.00
2023-01-25T08:31:09.243Z,100.00
2023-01-25T08:34:11.529Z,100.00
2023-01-25T08:37:13.088Z,100.00
2023-01-25T08:40:14.816Z,100.00
2023-01-25T08:43:16.288Z,100.00
2023-01-25T08:46:17.923Z,100.00
2023-01-25T08:49:19.512Z,100.00
2023-01-25T08:52:22.895Z,100.00
2023-01-25T08:55:24.450Z,100.00
2023-01-25T08:58:25.983Z,100.00
2023-01-25T09:01:27.787Z,100.00
2023-01-25T09:04:29.575Z,100.00
2023-01-25T09:07:32.452Z,100.00
2023-01-25T09:10:34.591Z,100.00
2023-01-25T09:13:36.837Z,100.00
2023-01-25T09:16:38.532Z,100.00
2023-01-25T09:19:42.074Z,100.00
2023-01-25T09:22:43.737Z,100.00
2023-01-25T09:25:45.219Z,100.00
2023-01-25T09:28:49.022Z,100.00
2023-01-25T09:31:51.001Z,100.00
2023-01-25T09:35:11.915Z,100.00
2023-01-25T09:38:13.515Z,100.00
2023-01-25T09:41:53.440Z,100.00
2023-01-25T09:45:13.066Z,100.00
2023-01-25T09:48:41.892Z,100.00
2023-01-25T09:52:05.144Z,100.00
2023-01-25T09:55:15.737Z,100.00
2023-01-25T09:58:26.220Z,100.00
2023-01-25T10:01:38.957Z,100.00
2023-01-25T10:04:44.250Z,100.00
2023-01-25T10:07:53.444Z,100.00
2023-01-25T10:11:16.574Z,100.00
2023-01-25T10:14:19.607Z,100.00
2023-01-25T10:17:40.414Z,100.00
2023-01-25T10:20:54.964Z,100.00
2023-01-25T10:24:19.220Z,100.00
2023-01-25T10:27:33.241Z,100.00
2023-01-25T10:30:43.192Z,100.00
2023-01-25T10:33:47.604Z,100.00
2023-01-25T10:36:54.966Z,100.00
2023-01-25T10:40:03.134Z,100.00
2023-01-25T10:43:11.739Z,99.43
2023-01-25T10:46:21.752Z,99.07
2023-01-25T10:49:29.249Z,100.00
2023-01-25T10:52:32.758Z,100.00
2023-01-25T10:55:34.375Z,100.00
2023-01-25T10:58:37.777Z,98.48
2023-01-25T11:01:39.385Z,98.56
2023-01-25T11:04:43.058Z,97.54
2023-01-25T11:07:46.610Z,97.39
2023-01-25T11:10:48.617Z,96.56
2023-01-25T11:13:50.455Z,96.85
2023-01-25T11:16:52.765Z,95.96
2023-01-25T11:20:20.786Z,96.25
2023-01-25T11:23:26.636Z,96.72
2023-01-25T11:26:28.838Z,96.90
2023-01-25T11:29:30.439Z,97.21
2023-01-25T11:32:32.460Z,96.40
2023-01-25T11:35:36.449Z,94.84
2023-01-25T11:38:44.367Z,93.75
2023-01-25T11:42:07.375Z,91.87
2023-01-25T11:45:38.476Z,90.04
2023-01-25T11:48:57.815Z,89.91
2023-01-25T11:52:15.616Z,89.03
2023-01-25T11:55:27.087Z,88.93
2023-01-25T11:58:38.639Z,88.88
2023-01-25T12:02:07.145Z,87.62
2023-01-25T12:05:51.951Z,87.46
2023-01-25T12:09:28.929Z,86.59
2023-01-25T12:12:45.851Z,85.57
2023-01-25T12:16:06.501Z,86.77
2023-01-25T12:19:38.658Z,85.90
2023-01-25T12:22:59.217Z,85.22
2023-01-25T12:26:09.533Z,84.43
2023-01-25T12:29:32.454Z,83.64
2023-01-25T12:32:41.169Z,82.80
2023-01-25T12:36:06.700Z,81.86
2023-01-25T12:39:25.241Z,81.43
2023-01-25T12:42:36.254Z,80.64
2023-01-25T12:45:38.543Z,81.26
2023-01-25T12:48:47.544Z,80.34
2023-01-25T12:51:50.877Z,80.23
2023-01-25T12:54:56.957Z,79.77
2023-01-25T12:58:26.462Z,80.30
2023-01-25T13:01:41.211Z,80.77
2023-01-25T13:04:56.098Z,80.98
2023-01-25T13:08:30.308Z,82.57
2023-01-25T13:11:39.809Z,83.82
2023-01-25T13:14:41.727Z,83.19
2023-01-25T13:17:43.335Z,82.94
2023-01-25T13:20:49.595Z,83.24
2023-01-25T13:24:12.135Z,84.63
2023-01-25T13:27:26.234Z,84.16
2023-01-25T13:30:34.185Z,83.55
2023-01-25T13:33:36.322Z,85.67
2023-01-25T13:36:40.664Z,85.47
2023-01-25T13:39:54.083Z,85.38
2023-01-25T13:43:03.714Z,85.11
2023-01-25T13:46:08.199Z,85.46
2023-01-25T13:49:21.120Z,85.59
2023-01-25T13:52:24.392Z,86.18
2023-01-25T13:55:27.114Z,85.25
2023-01-25T13:58:34.560Z,85.99
2023-01-25T14:01:36.897Z,86.49
2023-01-25T14:04:38.568Z,86.83
2023-01-25T14:07:45.398Z,87.29
2023-01-25T14:10:48.113Z,88.00
2023-01-25T14:14:21.232Z,88.45
2023-01-25T14:17:23.727Z,88.64
2023-01-25T14:20:25.453Z,88.32
2023-01-25T14:23:29.264Z,88.58
2023-01-25T14:26:38.208Z,89.44
2023-01-25T14:29:40.165Z,90.33
2023-01-25T14:32:42.203Z,90.93
2023-01-25T14:36:11.591Z,91.12
2023-01-25T14:39:16.800Z,91.63
2023-01-25T14:42:19.097Z,91.22
2023-01-25T14:45:23.995Z,91.63
2023-01-25T14:48:42.086Z,92.73
2023-01-25T14:51:53.696Z,92.67
2023-01-25T14:54:58.621Z,93.06
2023-01-25T14:58:01.418Z,93.44
2023-01-25T15:01:03.325Z,93.40
2023-01-25T15:04:11.169Z,93.70
2023-01-25T15:07:43.064Z,93.50
2023-01-25T15:10:51.554Z,94.28
2023-01-25T15:14:01.951Z,94.32
2023-01-25T15:17:03.766Z,95.53
2023-01-25T15:20:05.681Z,96.53
2023-01-25T15:23:28.098Z,96.30
2023-01-25T15:26:31.520Z,97.44
2023-01-25T15:29:33.055Z,97.74
2023-01-25T15:32:34.668Z,97.45
2023-01-25T15:35:36.210Z,98.01
2023-01-25T15:38:37.829Z,97.86
2023-01-25T15:41:39.416Z,97.44
2023-01-25T15:44:40.945Z,98.31
2023-01-25T15:47:42.438Z,98.49
2023-01-25T15:50:44.219Z,98.08
2023-01-25T15:53:46.753Z,99.08
2023-01-25T15:56:54.241Z,100.00
2023-01-25T15:59:56.971Z,100.00
2023-01-25T16:02:58.597Z,100.00
2023-01-25T16:06:03.898Z,100.00
2023-01-25T16:09:26.922Z,100.00
2023-01-25T16:12:28.531Z,100.00
2023-01-25T16:15:30.118Z,100.00
2023-01-25T16:18:31.737Z,100.00
2023-01-25T16:21:33.302Z,100.00
2023-01-25T16:24:34.861Z,100.00
2023-01-25T16:27:36.494Z,100.00
2023-01-25T16:30:38.098Z,100.00
2023-01-25T16:33:39.766Z,100.00
2023-01-25T16:36:41.471Z,100.00
2023-01-25T16:39:43.142Z,100.00
2023-01-25T16:42:44.734Z,100.00
2023-01-25T16:45:48.899Z,100.00
2023-01-25T16:48:52.104Z,100.00
2023-01-25T16:52:02.443Z,100.00
2023-01-25T16:55:05.217Z,100.00
2023-01-25T16:58:06.766Z,100.00
2023-01-25T17:01:10.653Z,100.00
2023-01-25T17:04:12.869Z,100.00
2023-01-25T17:07:14.400Z,100.00
2023-01-25T17:10:16.327Z,100.00
2023-01-25T17:13:17.990Z,100.00
2023-01-25T17:16:21.284Z,100.00
2023-01-25T17:19:23.548Z,100.00
2023-01-25T17:22:25.288Z,100.00
2023-01-25T17:25:27.946Z,100.00
2023-01-25T17:28:29.583Z,100.00
2023-01-25T17:31:33.258Z,100.00
2023-01-25T17:34:34.846Z,100.00
2023-01-25T17:37:40.862Z,100.00
2023-01-25T17:40:42.419Z,100.00
2023-01-25T17:43:44.117Z,100.00
2023-01-25T17:46:46.254Z,100.00
2023-01-25T17:49:47.823Z,100.00
2023-01-25T17:52:49.989Z,100.00
2023-01-25T17:55:51.634Z,100.00
2023-01-25T17:58:53.790Z,100.00
2023-01-25T18:01:55.388Z,100.00
2023-01-25T18:04:57.833Z,100.00
2023-01-25T18:07:59.709Z,100.00
2023-01-25T18:11:01.363Z,100.00
2023-01-25T18:14:08.183Z,100.00
2023-01-25T18:17:09.869Z,100.00
2023-01-25T18:20:11.871Z,100.00
2023-01-25T18:23:13.530Z,100.00
2023-01-25T18:26:20.470Z,100.00
2023-01-25T18:29:35.284Z,100.00
2023-01-25T18:32:36.878Z,100.00
2023-01-25T18:35:38.555Z,100.00
2023-01-25T18:38:40.454Z,100.00
2023-01-25T18:41:44.504Z,100.00
2023-01-25T18:44:48.427Z,100.00
2023-01-25T18:47:50.102Z,100.00
2023-01-25T18:50:51.772Z,100.00
2023-01-25T18:53:53.741Z,100.00
2023-01-25T18:56:55.452Z,100.00
2023-01-25T18:59:58.955Z,100.00
2023-01-25T19:03:01.315Z,100.00
2023-01-25T19:06:03.322Z,100.00
2023-01-25T19:09:04.986Z,100.00
2023-01-25T19:12:06.871Z,100.00
2023-01-25T19:15:09.129Z,100.00
2023-01-25T19:18:10.896Z,100.00
2023-01-25T19:21:24.731Z,100.00
2023-01-25T19:24:27.069Z,100.00
2023-01-25T19:27:30.570Z,100.00
2023-01-25T19:30:32.463Z,100.00
2023-01-25T19:33:34.382Z,100.00
2023-01-25T19:36:38.095Z,100.00
2023-01-25T19:39:39.746Z,100.00
2023-01-25T19:42:41.231Z,100.00
2023-01-25T19:45:42.707Z,100.00
2023-01-25T19:48:47.667Z,100.00
2023-01-25T19:51:53.051Z,100.00
2023-01-25T19:54:54.851Z,100.00
2023-01-25T19:57:56.472Z,100.00
2023-01-25T20:01:12.624Z,100.00
2023-01-25T20:04:19.598Z,100.00
2023-01-25T20:07:22.313Z,100.00
2023-01-25T20:10:23.852Z,100.00
2023-01-25T20:13:25.714Z,100.00
2023-01-25T20:16:28.843Z,100.00
2023-01-25T20:19:30.539Z,100.00
2023-01-25T20:22:32.085Z,100.00
2023-01-25T20:25:33.591Z,100.00
2023-01-25T20:28:35.998Z,100.00
2023-01-25T20:31:41.195Z,100.00
2023-01-25T20:34:43.953Z,100.00
2023-01-25T20:37:50.753Z,100.00
2023-01-25T20:40:52.338Z,100.00
2023-01-25T20:44:04.333Z,100.00
2023-01-25T20:47:05.938Z,100.00
2023-01-25T20:50:09.612Z,100.00
2023-01-25T20:53:12.576Z,100.00
2023-01-25T20:56:16.160Z,100.00
2023-01-25T20:59:19.095Z,100.00
2023-01-25T21:02:20.841Z,100.00
2023-01-25T21:05:22.473Z,100.00
2023-01-25T21:08:25.419Z,100.00
2023-01-25T21:11:27.097Z,100.00
2023-01-25T21:14:28.578Z,100.00
2023-01-25T21:17:30.771Z,100.00
2023-01-25T21:20:32.348Z,100.00
2023-01-25T21:23:35.040Z,100.00
2023-01-25T21:26:37.952Z,100.00
2023-01-25T21:29:39.525Z,100.00
2023-01-25T21:32:41.391Z,100.00
2023-01-25T21:35:43.356Z,100.00
2023-01-25T21:38:47.323Z,100.00
2023-01-25T21:41:48.859Z,100.00
2023-01-25T21:45:09.219Z,100.00
2023-01-25T21:48:10.957Z,100.00
2023-01-25T21:51:31.339Z,100.00
2023-01-25T21:54:35.495Z,100.00
2023-01-25T21:57:36.935Z,100.00
2023-01-25T22:00:38.433Z,100.00
2023-01-25T22:03:40.055Z,100.00
2023-01-25T22:06:41.980Z,100.00
2023-01-25T22:09:43.564Z,100.00
2023-01-25T22:12:45.743Z,100.00
2023-01-25T22:15:47.309Z,100.00
2023-01-25T22:18:49.585Z,100.00
2023-01-25T22:21:51.097Z,100.00
2023-01-25T22:24:52.755Z,100.00
2023-01-25T22:27:59.806Z,100.00
2023-01-25T22:31:01.868Z,100.00
2023-01-25T22:34:04.041Z,100.00
2023-01-25T22:37:05.617Z,100.00
2023-01-25T22:40:07.973Z,100.00
2023-01-25T22:43:09.604Z,100.00
2023-01-25T22:46:16.392Z,100.00
2023-01-25T22:49:18.131Z,100.00
2023-01-25T22:52:19.789Z,100.00
2023-01-25T22:55:21.383Z,100.00
2023-01-25T22:58:22.893Z,100.00
2023-01-25T23:01:27.380Z,100.00
2023-01-25T23:04:29.119Z,100.00
2023-01-25T23:07:30.765Z,100.00
2023-01-25T23:10:32.349Z,100.00
2023-01-25T23:13:34.316Z,100.00
2023-01-25T23:16:36.367Z,100.00
2023-01-25T23:19:37.881Z,100.00
2023-01-25T23:22:40.154Z,100.00
2023-01-25T23:25:41.705Z,100.00
2023-01-25T23:28:43.696Z,100.00
2023-01-25T23:31:45.342Z,100.00
2023-01-25T23:34:53.113Z,100.00
2023-01-25T23:37:54.747Z,100.00
2023-01-25T23:41:01.147Z,100.00
2023-01-25T23:44:02.773Z,100.00
2023-01-25T23:47:04.461Z,100.00
2023-01-25T23:50:06.793Z,100.00
2023-01-25T23:53:08.318Z,100.00
2023-01-25T23:56:12.736Z,100.00
2023-01-25T23:59:14.343Z,100.00
